sensor_id;sensor_type;location;lat;lon;timestamp;temperature;humidity
71627;DHT22;59475;52.464;13.590;2023-02-03T00:00:13;1.21;93.15
71627;DHT22;59475;52.464;13.590;2023-02-03T00:02:39;1.20;93.20
71627;DHT22;59475;52.464;13.590;2023-02-03T00:05:05;1.23;93.21
71627;DHT22;59475;52.464;13.590;2023-02-03T00:07:30;1.26;93.27
71627;DHT22;59475;52.464;13.590;2023-02-03T00:09:56;1.27;93.26
71627;DHT22;59475;52.464;13.590;2023-02-03T00:12:22;1.27;93.28
71627;DHT22;59475;52.464;13.590;2023-02-03T00:14:47;1.26;93.39
71627;DHT22;59475;52.464;13.590;2023-02-03T00:17:12;1.28;93.45
71627;DHT22;59475;52.464;13.590;2023-02-03T00:19:39;1.34;93.46
71627;DHT22;59475;52.464;13.590;2023-02-03T00:22:04;1.34;93.43
71627;DHT22;59475;52.464;13.590;2023-02-03T00:24:30;1.39;93.33
71627;DHT22;59475;52.464;13.590;2023-02-03T00:26:55;1.47;93.23
71627;DHT22;59475;52.464;13.590;2023-02-03T00:29:20;1.54;93.25
71627;DHT22;59475;52.464;13.590;2023-02-03T00:31:50;1.52;93.33
71627;DHT22;59475;52.464;13.590;2023-02-03T00:34:16;1.56;93.50
71627;DHT22;59475;52.464;13.590;2023-02-03T00:36:42;1.55;93.72
71627;DHT22;59475;52.464;13.590;2023-02-03T00:39:07;1.55;93.93
71627;DHT22;59475;52.464;13.590;2023-02-03T00:41:32;1.66;94.11
71627;DHT22;59475;52.464;13.590;2023-02-03T00:43:58;1.63;94.31
71627;DHT22;59475;52.464;13.590;2023-02-03T00:46:23;1.62;94.54
71627;DHT22;59475;52.464;13.590;2023-02-03T00:48:48;1.65;94.50
71627;DHT22;59475;52.464;13.590;2023-02-03T00:51:14;1.62;94.79
71627;DHT22;59475;52.464;13.590;2023-02-03T00:53:39;1.63;94.98
71627;DHT22;59475;52.464;13.590;2023-02-03T00:56:05;1.63;95.17
71627;DHT22;59475;52.464;13.590;2023-02-03T00:58:39;1.66;95.37
71627;DHT22;59475;52.464;13.590;2023-02-03T01:01:05;1.70;95.55
71627;DHT22;59475;52.464;13.590;2023-02-03T01:03:31;1.70;95.66
71627;DHT22;59475;52.464;13.590;2023-02-03T01:05:56;1.79;95.53
71627;DHT22;59475;52.464;13.590;2023-02-03T01:08:31;1.82;95.80
71627;DHT22;59475;52.464;13.590;2023-02-03T01:10:57;1.87;95.86
71627;DHT22;59475;52.464;13.590;2023-02-03T01:13:22;1.89;95.89
71627;DHT22;59475;52.464;13.590;2023-02-03T01:15:47;1.92;95.94
71627;DHT22;59475;52.464;13.590;2023-02-03T01:18:13;1.94;96.02
71627;DHT22;59475;52.464;13.590;2023-02-03T01:20:38;1.94;96.14
71627;DHT22;59475;52.464;13.590;2023-02-03T01:23:04;1.99;96.18
71627;DHT22;59475;52.464;13.590;2023-02-03T01:25:29;2.00;96.20
71627;DHT22;59475;52.464;13.590;2023-02-03T01:27:54;2.00;96.32
71627;DHT22;59475;52.464;13.590;2023-02-03T01:30:20;2.00;96.33
71627;DHT22;59475;52.464;13.590;2023-02-03T01:32:45;2.02;96.36
71627;DHT22;59475;52.464;13.590;2023-02-03T01:35:11;2.03;96.47
71627;DHT22;59475;52.464;13.590;2023-02-03T01:37:36;2.03;96.58
71627;DHT22;59475;52.464;13.590;2023-02-03T01:40:02;2.07;96.63
71627;DHT22;59475;52.464;13.590;2023-02-03T01:42:31;2.10;96.61
71627;DHT22;59475;52.464;13.590;2023-02-03T01:44:57;2.13;96.66
71627;DHT22;59475;52.464;13.590;2023-02-03T01:47:30;2.15;96.67
71627;DHT22;59475;52.464;13.590;2023-02-03T01:52:40;2.15;96.66
71627;DHT22;59475;52.464;13.590;2023-02-03T01:55:08;2.18;96.61
71627;DHT22;59475;52.464;13.590;2023-02-03T01:57:46;2.20;96.63
71627;DHT22;59475;52.464;13.590;2023-02-03T02:00:15;2.18;96.62
71627;DHT22;59475;52.464;13.590;2023-02-03T02:02:44;2.17;96.64
71627;DHT22;59475;52.464;13.590;2023-02-03T02:05:18;2.23;96.65
71627;DHT22;59475;52.464;13.590;2023-02-03T02:07:46;2.17;96.70
71627;DHT22;59475;52.464;13.590;2023-02-03T02:10:12;2.15;96.69
71627;DHT22;59475;52.464;13.590;2023-02-03T02:12:38;2.17;96.62
71627;DHT22;59475;52.464;13.590;2023-02-03T02:15:04;2.17;96.61
71627;DHT22;59475;52.464;13.590;2023-02-03T02:34:33;2.09;96.64
71627;DHT22;59475;52.464;13.590;2023-02-03T02:37:06;2.03;96.83
71627;DHT22;59475;52.464;13.590;2023-02-03T02:42:34;2.07;96.62
71627;DHT22;59475;52.464;13.590;2023-02-03T02:45:07;2.02;96.57
71627;DHT22;59475;52.464;13.590;2023-02-03T02:47:34;1.99;96.45
71627;DHT22;59475;52.464;13.590;2023-02-03T02:50:06;1.94;96.52
71627;DHT22;59475;52.464;13.590;2023-02-03T02:52:38;1.93;96.36
71627;DHT22;59475;52.464;13.590;2023-02-03T02:55:12;1.90;96.39
71627;DHT22;59475;52.464;13.590;2023-02-03T02:57:39;1.85;96.46
71627;DHT22;59475;52.464;13.590;2023-02-03T03:00:07;1.79;96.40
71627;DHT22;59475;52.464;13.590;2023-02-03T03:02:34;1.76;96.38
71627;DHT22;59475;52.464;13.590;2023-02-03T03:05:01;1.73;96.45
71627;DHT22;59475;52.464;13.590;2023-02-03T03:07:34;1.68;96.53
71627;DHT22;59475;52.464;13.590;2023-02-03T03:10:07;1.66;96.67
71627;DHT22;59475;52.464;13.590;2023-02-03T03:12:38;1.63;96.53
71627;DHT22;59475;52.464;13.590;2023-02-03T03:15:10;1.58;96.68
71627;DHT22;59475;52.464;13.590;2023-02-03T03:17:40;1.58;96.74
71627;DHT22;59475;52.464;13.590;2023-02-03T03:20:17;1.59;96.95
71627;DHT22;59475;52.464;13.590;2023-02-03T03:22:52;1.58;96.99
71627;DHT22;59475;52.464;13.590;2023-02-03T03:25:23;1.59;97.13
71627;DHT22;59475;52.464;13.590;2023-02-03T03:27:53;1.60;97.24
71627;DHT22;59475;52.464;13.590;2023-02-03T03:30:22;1.68;97.29
71627;DHT22;59475;52.464;13.590;2023-02-03T03:32:49;1.66;97.34
71627;DHT22;59475;52.464;13.590;2023-02-03T03:35:15;1.69;97.40
71627;DHT22;59475;52.464;13.590;2023-02-03T03:37:42;1.72;97.35
71627;DHT22;59475;52.464;13.590;2023-02-03T03:40:13;1.73;97.32
71627;DHT22;59475;52.464;13.590;2023-02-03T03:42:47;1.76;97.32
71627;DHT22;59475;52.464;13.590;2023-02-03T03:45:24;1.79;97.36
71627;DHT22;59475;52.464;13.590;2023-02-03T03:50:32;1.82;97.57
71627;DHT22;59475;52.464;13.590;2023-02-03T03:53:00;1.87;97.58
71627;DHT22;59475;52.464;13.590;2023-02-03T03:55:29;1.87;97.65
71627;DHT22;59475;52.464;13.590;2023-02-03T03:58:03;1.87;97.66
71627;DHT22;59475;52.464;13.590;2023-02-03T04:00:31;1.93;97.68
71627;DHT22;59475;52.464;13.590;2023-02-03T04:03:00;1.96;97.65
71627;DHT22;59475;52.464;13.590;2023-02-03T04:05:27;1.97;97.79
71627;DHT22;59475;52.464;13.590;2023-02-03T04:07:52;1.99;97.88
71627;DHT22;59475;52.464;13.590;2023-02-03T04:10:24;2.03;97.83
71627;DHT22;59475;52.464;13.590;2023-02-03T04:12:50;2.07;97.78
71627;DHT22;59475;52.464;13.590;2023-02-03T04:15:16;2.10;97.87
71627;DHT22;59475;52.464;13.590;2023-02-03T04:17:42;2.10;97.85
71627;DHT22;59475;52.464;13.590;2023-02-03T04:20:08;2.13;97.84
71627;DHT22;59475;52.464;13.590;2023-02-03T04:22:34;2.23;97.80
71627;DHT22;59475;52.464;13.590;2023-02-03T04:24:59;2.25;97.71
71627;DHT22;59475;52.464;13.590;2023-02-03T04:27:25;2.24;97.82
71627;DHT22;59475;52.464;13.590;2023-02-03T04:29:50;2.25;97.94
71627;DHT22;59475;52.464;13.590;2023-02-03T04:32:16;2.32;97.99
71627;DHT22;59475;52.464;13.590;2023-02-03T04:34:41;2.34;97.94
71627;DHT22;59475;52.464;13.590;2023-02-03T04:37:07;2.35;98.04
71627;DHT22;59475;52.464;13.590;2023-02-03T04:39:32;2.45;98.06
71627;DHT22;59475;52.464;13.590;2023-02-03T04:41:58;2.48;98.11
71627;DHT22;59475;52.464;13.590;2023-02-03T04:44:23;2.52;98.29
71627;DHT22;59475;52.464;13.590;2023-02-03T04:46:48;2.52;98.30
71627;DHT22;59475;52.464;13.590;2023-02-03T04:49:14;2.66;98.41
71627;DHT22;59475;52.464;13.590;2023-02-03T04:51:40;2.71;98.40
71627;DHT22;59475;52.464;13.590;2023-02-03T04:54:07;2.75;98.51
71627;DHT22;59475;52.464;13.590;2023-02-03T04:56:32;2.82;98.48
71627;DHT22;59475;52.464;13.590;2023-02-03T04:58:57;2.89;98.51
71627;DHT22;59475;52.464;13.590;2023-02-03T05:01:23;2.92;98.52
71627;DHT22;59475;52.464;13.590;2023-02-03T05:03:48;2.96;98.52
71627;DHT22;59475;52.464;13.590;2023-02-03T05:06:14;3.07;98.61
71627;DHT22;59475;52.464;13.590;2023-02-03T05:08:39;3.08;98.49
71627;DHT22;59475;52.464;13.590;2023-02-03T05:11:04;3.13;98.57
71627;DHT22;59475;52.464;13.590;2023-02-03T05:13:29;3.21;98.75
71627;DHT22;59475;52.464;13.590;2023-02-03T05:15:55;3.30;98.78
71627;DHT22;59475;52.464;13.590;2023-02-03T05:18:20;3.41;98.78
71627;DHT22;59475;52.464;13.590;2023-02-03T05:20:46;3.42;98.72
71627;DHT22;59475;52.464;13.590;2023-02-03T05:23:11;3.52;98.76
71627;DHT22;59475;52.464;13.590;2023-02-03T05:25:36;3.58;98.71
71627;DHT22;59475;52.464;13.590;2023-02-03T05:28:02;3.64;98.79
71627;DHT22;59475;52.464;13.590;2023-02-03T05:30:27;3.68;98.82
71627;DHT22;59475;52.464;13.590;2023-02-03T05:32:53;3.76;98.93
71627;DHT22;59475;52.464;13.590;2023-02-03T05:35:18;3.85;99.00
71627;DHT22;59475;52.464;13.590;2023-02-03T05:37:44;3.93;99.06
71627;DHT22;59475;52.464;13.590;2023-02-03T05:40:11;4.02;99.02
71627;DHT22;59475;52.464;13.590;2023-02-03T05:42:55;4.07;98.89
71627;DHT22;59475;52.464;13.590;2023-02-03T05:45:20;4.14;99.05
71627;DHT22;59475;52.464;13.590;2023-02-03T05:47:46;4.22;99.15
71627;DHT22;59475;52.464;13.590;2023-02-03T05:50:11;4.30;99.14
71627;DHT22;59475;52.464;13.590;2023-02-03T05:52:37;4.42;99.12
71627;DHT22;59475;52.464;13.590;2023-02-03T05:55:02;4.45;99.04
71627;DHT22;59475;52.464;13.590;2023-02-03T05:57:28;4.55;99.06
71627;DHT22;59475;52.464;13.590;2023-02-03T05:59:54;4.57;99.00
71627;DHT22;59475;52.464;13.590;2023-02-03T06:02:19;4.61;99.00
71627;DHT22;59475;52.464;13.590;2023-02-03T06:04:44;4.65;98.97
71627;DHT22;59475;52.464;13.590;2023-02-03T06:07:10;4.73;98.98
71627;DHT22;59475;52.464;13.590;2023-02-03T06:09:35;4.76;98.98
71627;DHT22;59475;52.464;13.590;2023-02-03T06:12:00;4.85;98.95
71627;DHT22;59475;52.464;13.590;2023-02-03T06:14:26;4.96;98.98
71627;DHT22;59475;52.464;13.590;2023-02-03T06:16:52;5.03;98.91
71627;DHT22;59475;52.464;13.590;2023-02-03T06:19:18;5.03;98.79
71627;DHT22;59475;52.464;13.590;2023-02-03T06:21:43;5.12;98.79
71627;DHT22;59475;52.464;13.590;2023-02-03T06:24:09;5.17;98.78
71627;DHT22;59475;52.464;13.590;2023-02-03T06:26:35;5.19;98.82
71627;DHT22;59475;52.464;13.590;2023-02-03T06:29:00;5.27;98.91
71627;DHT22;59475;52.464;13.590;2023-02-03T06:31:26;5.28;98.79
71627;DHT22;59475;52.464;13.590;2023-02-03T06:33:51;5.35;98.77
71627;DHT22;59475;52.464;13.590;2023-02-03T06:36:18;5.44;98.85
71627;DHT22;59475;52.464;13.590;2023-02-03T06:38:43;5.50;98.75
71627;DHT22;59475;52.464;13.590;2023-02-03T06:41:08;5.56;98.75
71627;DHT22;59475;52.464;13.590;2023-02-03T06:43:34;5.62;98.76
71627;DHT22;59475;52.464;13.590;2023-02-03T06:46:00;5.68;98.64
71627;DHT22;59475;52.464;13.590;2023-02-03T06:48:25;5.72;98.65
71627;DHT22;59475;52.464;13.590;2023-02-03T06:50:51;5.79;98.63
71627;DHT22;59475;52.464;13.590;2023-02-03T06:53:16;5.83;98.59
71627;DHT22;59475;52.464;13.590;2023-02-03T06:55:42;5.86;98.54
71627;DHT22;59475;52.464;13.590;2023-02-03T06:58:07;5.88;98.58
71627;DHT22;59475;52.464;13.590;2023-02-03T07:00:32;6.05;98.51
71627;DHT22;59475;52.464;13.590;2023-02-03T07:02:58;6.05;98.36
71627;DHT22;59475;52.464;13.590;2023-02-03T07:05:24;6.17;98.20
71627;DHT22;59475;52.464;13.590;2023-02-03T07:07:52;6.21;98.07
71627;DHT22;59475;52.464;13.590;2023-02-03T07:10:17;6.30;98.08
71627;DHT22;59475;52.464;13.590;2023-02-03T07:12:43;6.31;97.95
71627;DHT22;59475;52.464;13.590;2023-02-03T07:15:09;6.31;98.01
71627;DHT22;59475;52.464;13.590;2023-02-03T07:17:35;6.36;97.91
71627;DHT22;59475;52.464;13.590;2023-02-03T07:20:00;6.48;97.66
71627;DHT22;59475;52.464;13.590;2023-02-03T07:22:25;6.49;97.64
71627;DHT22;59475;52.464;13.590;2023-02-03T07:24:51;6.49;97.55
71627;DHT22;59475;52.464;13.590;2023-02-03T07:27:16;6.55;97.47
71627;DHT22;59475;52.464;13.590;2023-02-03T07:29:41;6.59;97.47
71627;DHT22;59475;52.464;13.590;2023-02-03T07:32:07;6.61;97.41
71627;DHT22;59475;52.464;13.590;2023-02-03T07:34:32;6.63;97.44
71627;DHT22;59475;52.464;13.590;2023-02-03T07:36:58;6.65;97.42
71627;DHT22;59475;52.464;13.590;2023-02-03T07:39:23;6.65;97.33
71627;DHT22;59475;52.464;13.590;2023-02-03T07:41:48;6.71;97.25
71627;DHT22;59475;52.464;13.590;2023-02-03T07:44:14;6.76;97.13
71627;DHT22;59475;52.464;13.590;2023-02-03T07:46:39;6.76;96.98
71627;DHT22;59475;52.464;13.590;2023-02-03T07:49:12;6.76;97.15
71627;DHT22;59475;52.464;13.590;2023-02-03T07:51:38;6.72;97.16
71627;DHT22;59475;52.464;13.590;2023-02-03T07:54:04;6.76;97.24
71627;DHT22;59475;52.464;13.590;2023-02-03T07:56:30;6.82;97.04
71627;DHT22;59475;52.464;13.590;2023-02-03T07:58:57;6.86;96.89
71627;DHT22;59475;52.464;13.590;2023-02-03T08:01:22;6.86;97.02
71627;DHT22;59475;52.464;13.590;2023-02-03T08:03:49;6.91;96.82
71627;DHT22;59475;52.464;13.590;2023-02-03T08:06:14;6.88;96.93
71627;DHT22;59475;52.464;13.590;2023-02-03T08:08:40;6.89;96.86
71627;DHT22;59475;52.464;13.590;2023-02-03T08:11:06;6.92;96.74
71627;DHT22;59475;52.464;13.590;2023-02-03T08:13:31;6.95;96.70
71627;DHT22;59475;52.464;13.590;2023-02-03T08:15:57;6.93;96.80
71627;DHT22;59475;52.464;13.590;2023-02-03T08:18:22;6.95;96.71
71627;DHT22;59475;52.464;13.590;2023-02-03T08:20:48;6.95;96.62
71627;DHT22;59475;52.464;13.590;2023-02-03T08:23:14;6.91;96.84
71627;DHT22;59475;52.464;13.590;2023-02-03T08:25:39;6.95;96.85
71627;DHT22;59475;52.464;13.590;2023-02-03T08:28:04;6.95;96.76
71627;DHT22;59475;52.464;13.590;2023-02-03T08:30:30;6.99;96.68
71627;DHT22;59475;52.464;13.590;2023-02-03T08:32:56;7.00;96.57
71627;DHT22;59475;52.464;13.590;2023-02-03T08:35:22;6.97;96.71
71627;DHT22;59475;52.464;13.590;2023-02-03T08:37:47;6.99;96.91
71627;DHT22;59475;52.464;13.590;2023-02-03T08:40:12;6.97;96.86
71627;DHT22;59475;52.464;13.590;2023-02-03T08:42:38;7.03;96.72
71627;DHT22;59475;52.464;13.590;2023-02-03T08:45:04;7.04;96.59
71627;DHT22;59475;52.464;13.590;2023-02-03T08:47:29;7.02;96.55
71627;DHT22;59475;52.464;13.590;2023-02-03T08:49:55;7.04;96.71
71627;DHT22;59475;52.464;13.590;2023-02-03T08:52:20;7.06;96.72
71627;DHT22;59475;52.464;13.590;2023-02-03T08:54:46;7.10;96.54
71627;DHT22;59475;52.464;13.590;2023-02-03T08:57:12;7.12;96.47
71627;DHT22;59475;52.464;13.590;2023-02-03T08:59:42;7.12;96.65
71627;DHT22;59475;52.464;13.590;2023-02-03T09:02:13;7.14;96.65
71627;DHT22;59475;52.464;13.590;2023-02-03T09:04:39;7.17;96.57
71627;DHT22;59475;52.464;13.590;2023-02-03T09:07:04;7.17;96.56
71627;DHT22;59475;52.464;13.590;2023-02-03T09:09:31;7.17;96.87
71627;DHT22;59475;52.464;13.590;2023-02-03T09:11:56;7.17;96.87
71627;DHT22;59475;52.464;13.590;2023-02-03T09:14:29;7.19;96.88
71627;DHT22;59475;52.464;13.590;2023-02-03T09:16:55;7.19;96.81
71627;DHT22;59475;52.464;13.590;2023-02-03T09:19:21;7.21;96.59
71627;DHT22;59475;52.464;13.590;2023-02-03T09:21:46;7.20;96.73
71627;DHT22;59475;52.464;13.590;2023-02-03T09:24:14;7.20;96.59
71627;DHT22;59475;52.464;13.590;2023-02-03T09:26:39;7.24;96.60
71627;DHT22;59475;52.464;13.590;2023-02-03T09:29:05;7.31;96.56
71627;DHT22;59475;52.464;13.590;2023-02-03T09:31:31;7.27;96.45
71627;DHT22;59475;52.464;13.590;2023-02-03T09:33:58;7.31;96.64
71627;DHT22;59475;52.464;13.590;2023-02-03T09:36:24;7.30;96.66
71627;DHT22;59475;52.464;13.590;2023-02-03T09:38:50;7.28;96.74
71627;DHT22;59475;52.464;13.590;2023-02-03T09:46:33;7.40;96.71
71627;DHT22;59475;52.464;13.590;2023-02-03T09:49:10;7.38;96.74
71627;DHT22;59475;52.464;13.590;2023-02-03T09:51:44;7.38;96.93
71627;DHT22;59475;52.464;13.590;2023-02-03T09:54:36;7.40;96.71
71627;DHT22;59475;52.464;13.590;2023-02-03T09:57:28;7.47;96.75
71627;DHT22;59475;52.464;13.590;2023-02-03T09:59:56;7.46;96.57
71627;DHT22;59475;52.464;13.590;2023-02-03T10:02:41;7.51;96.49
71627;DHT22;59475;52.464;13.590;2023-02-03T10:05:27;7.52;96.32
71627;DHT22;59475;52.464;13.590;2023-02-03T10:08:28;7.62;95.87
71627;DHT22;59475;52.464;13.590;2023-02-03T10:11:14;7.64;95.86
71627;DHT22;59475;52.464;13.590;2023-02-03T10:18:54;7.67;96.07
71627;DHT22;59475;52.464;13.590;2023-02-03T10:24:26;7.71;96.17
71627;DHT22;59475;52.464;13.590;2023-02-03T10:26:54;7.74;95.96
71627;DHT22;59475;52.464;13.590;2023-02-03T10:29:27;7.79;95.43
71627;DHT22;59475;52.464;13.590;2023-02-03T10:31:57;7.78;95.79
71627;DHT22;59475;52.464;13.590;2023-02-03T10:34:23;7.82;95.51
71627;DHT22;59475;52.464;13.590;2023-02-03T10:36:52;7.88;94.89
71627;DHT22;59475;52.464;13.590;2023-02-03T10:41:54;7.89;94.79
71627;DHT22;59475;52.464;13.590;2023-02-03T10:44:27;7.96;94.54
71627;DHT22;59475;52.464;13.590;2023-02-03T10:46:54;7.88;95.08
71627;DHT22;59475;52.464;13.590;2023-02-03T10:49:19;7.93;95.33
71627;DHT22;59475;52.464;13.590;2023-02-03T10:51:50;7.78;94.69
71627;DHT22;59475;52.464;13.590;2023-02-03T10:54:33;7.40;91.29
71627;DHT22;59475;52.464;13.590;2023-02-03T10:57:13;7.14;90.64
71627;DHT22;59475;52.464;13.590;2023-02-03T10:59:44;7.02;88.88
71627;DHT22;59475;52.464;13.590;2023-02-03T11:02:24;6.81;87.77
71627;DHT22;59475;52.464;13.590;2023-02-03T11:05:20;6.76;87.69
71627;DHT22;59475;52.464;13.590;2023-02-03T11:07:49;6.93;87.56
71627;DHT22;59475;52.464;13.590;2023-02-03T11:10:37;7.04;87.83
71627;DHT22;59475;52.464;13.590;2023-02-03T11:13:20;7.16;88.38
71627;DHT22;59475;52.464;13.590;2023-02-03T11:16:02;7.17;88.77
71627;DHT22;59475;52.464;13.590;2023-02-03T11:21:26;7.38;87.32
71627;DHT22;59475;52.464;13.590;2023-02-03T11:27:14;7.54;85.89
71627;DHT22;59475;52.464;13.590;2023-02-03T11:29:34;7.52;86.18
71627;DHT22;59475;52.464;13.590;2023-02-03T11:32:12;7.55;86.37
71627;DHT22;59475;52.464;13.590;2023-02-03T11:34:45;7.58;86.87
71627;DHT22;59475;52.464;13.590;2023-02-03T11:37:40;7.61;85.98
71627;DHT22;59475;52.464;13.590;2023-02-03T11:42:31;7.62;85.88
71627;DHT22;59475;52.464;13.590;2023-02-03T11:48:06;7.64;85.27
71627;DHT22;59475;52.464;13.590;2023-02-03T11:53:44;7.68;86.01
71627;DHT22;59475;52.464;13.590;2023-02-03T11:56:31;7.75;84.76
71627;DHT22;59475;52.464;13.590;2023-02-03T12:04:32;7.95;83.96
71627;DHT22;59475;52.464;13.590;2023-02-03T12:22:59;8.30;80.95
71627;DHT22;59475;52.464;13.590;2023-02-03T12:30:55;8.45;81.00
71627;DHT22;59475;52.464;13.590;2023-02-03T12:33:33;8.50;79.61
71627;DHT22;59475;52.464;13.590;2023-02-03T12:36:28;8.50;80.50
71627;DHT22;59475;52.464;13.590;2023-02-03T12:39:11;8.64;79.56
71627;DHT22;59475;52.464;13.590;2023-02-03T12:41:43;8.71;79.28
71627;DHT22;59475;52.464;13.590;2023-02-03T12:44:24;8.61;78.42
71627;DHT22;59475;52.464;13.590;2023-02-03T12:47:02;8.60;79.18
71627;DHT22;59475;52.464;13.590;2023-02-03T12:51:58;8.68;76.69
71627;DHT22;59475;52.464;13.590;2023-02-03T13:00:24;8.55;75.23
71627;DHT22;59475;52.464;13.590;2023-02-03T13:03:25;8.09;79.07
71627;DHT22;59475;52.464;13.590;2023-02-03T13:14:22;4.34;92.52
71627;DHT22;59475;52.464;13.590;2023-02-03T13:16:55;4.40;93.31
71627;DHT22;59475;52.464;13.590;2023-02-03T13:19:25;4.49;93.35
71627;DHT22;59475;52.464;13.590;2023-02-03T13:21:52;4.62;93.57
71627;DHT22;59475;52.464;13.590;2023-02-03T13:24:17;4.82;92.36
71627;DHT22;59475;52.464;13.590;2023-02-03T13:32:28;5.23;91.91
71627;DHT22;59475;52.464;13.590;2023-02-03T13:35:24;5.44;90.96
71627;DHT22;59475;52.464;13.590;2023-02-03T13:38:08;5.52;90.45
71627;DHT22;59475;52.464;13.590;2023-02-03T13:40:43;5.61;88.59
71627;DHT22;59475;52.464;13.590;2023-02-03T13:43:25;5.83;86.76
71627;DHT22;59475;52.464;13.590;2023-02-03T13:45:52;5.80;87.72
71627;DHT22;59475;52.464;13.590;2023-02-03T13:48:26;5.79;86.84
71627;DHT22;59475;52.464;13.590;2023-02-03T13:53:36;5.86;86.84
71627;DHT22;59475;52.464;13.590;2023-02-03T13:56:26;5.96;86.14
71627;DHT22;59475;52.464;13.590;2023-02-03T13:59:04;6.06;86.09
71627;DHT22;59475;52.464;13.590;2023-02-03T14:01:31;6.11;85.18
71627;DHT22;59475;52.464;13.590;2023-02-03T14:04:01;6.14;85.72
71627;DHT22;59475;52.464;13.590;2023-02-03T14:17:52;6.40;84.57
71627;DHT22;59475;52.464;13.590;2023-02-03T14:19:53;6.42;84.79
71627;DHT22;59475;52.464;13.590;2023-02-03T14:22:19;6.54;85.04
71627;DHT22;59475;52.464;13.590;2023-02-03T14:24:47;6.63;84.36
71627;DHT22;59475;52.464;13.590;2023-02-03T14:27:24;6.76;83.21
71627;DHT22;59475;52.464;13.590;2023-02-03T14:30:09;6.82;84.03
71627;DHT22;59475;52.464;13.590;2023-02-03T14:32:54;6.83;83.41
71627;DHT22;59475;52.464;13.590;2023-02-03T14:35:40;6.95;82.42
71627;DHT22;59475;52.464;13.590;2023-02-03T14:38:09;6.95;82.67
71627;DHT22;59475;52.464;13.590;2023-02-03T14:40:58;6.99;82.71
71627;DHT22;59475;52.464;13.590;2023-02-03T14:59:47;7.04;82.74
71627;DHT22;59475;52.464;13.590;2023-02-03T15:02:20;7.09;81.91
71627;DHT22;59475;52.464;13.590;2023-02-03T15:04:47;7.14;81.92
71627;DHT22;59475;52.464;13.590;2023-02-03T15:07:38;7.12;81.77
71627;DHT22;59475;52.464;13.590;2023-02-03T15:10:20;7.14;81.06
71627;DHT22;59475;52.464;13.590;2023-02-03T15:12:53;7.16;81.11
71627;DHT22;59475;52.464;13.590;2023-02-03T15:17:50;7.28;80.68
71627;DHT22;59475;52.464;13.590;2023-02-03T15:20:32;7.30;79.55
71627;DHT22;59475;52.464;13.590;2023-02-03T15:22:57;7.34;79.38
71627;DHT22;59475;52.464;13.590;2023-02-03T15:25:24;7.37;79.35
71627;DHT22;59475;52.464;13.590;2023-02-03T15:27:51;7.40;78.72
71627;DHT22;59475;52.464;13.590;2023-02-03T15:30:23;7.41;79.28
71627;DHT22;59475;52.464;13.590;2023-02-03T15:35:26;7.30;79.87
71627;DHT22;59475;52.464;13.590;2023-02-03T15:37:57;7.26;80.20
71627;DHT22;59475;52.464;13.590;2023-02-03T15:40:32;7.27;79.84
71627;DHT22;59475;52.464;13.590;2023-02-03T15:43:19;7.26;80.13
71627;DHT22;59475;52.464;13.590;2023-02-03T15:48:34;7.19;80.66
71627;DHT22;59475;52.464;13.590;2023-02-03T15:51:05;7.14;81.23
71627;DHT22;59475;52.464;13.590;2023-02-03T15:53:44;7.06;82.08
71627;DHT22;59475;52.464;13.590;2023-02-03T15:56:23;7.09;81.81
71627;DHT22;59475;52.464;13.590;2023-02-03T15:58:52;7.10;81.93
71627;DHT22;59475;52.464;13.590;2023-02-03T16:01:20;7.06;82.58
71627;DHT22;59475;52.464;13.590;2023-02-03T16:03:51;7.00;82.47
71627;DHT22;59475;52.464;13.590;2023-02-03T16:06:34;7.04;82.53
71627;DHT22;59475;52.464;13.590;2023-02-03T16:09:04;7.02;82.62
71627;DHT22;59475;52.464;13.590;2023-02-03T16:11:37;6.96;82.96
71627;DHT22;59475;52.464;13.590;2023-02-03T16:14:05;6.93;83.43
71627;DHT22;59475;52.464;13.590;2023-02-03T16:16:38;6.96;83.26
71627;DHT22;59475;52.464;13.590;2023-02-03T16:19:13;6.96;83.14
71627;DHT22;59475;52.464;13.590;2023-02-03T16:33:03;6.93;83.63
71627;DHT22;59475;52.464;13.590;2023-02-03T16:35:57;6.95;83.43
71627;DHT22;59475;52.464;13.590;2023-02-03T16:38:47;6.97;83.26
71627;DHT22;59475;52.464;13.590;2023-02-03T16:41:32;6.91;83.96
71627;DHT22;59475;52.464;13.590;2023-02-03T16:44:16;6.92;83.66
71627;DHT22;59475;52.464;13.590;2023-02-03T16:47:00;6.95;83.51
71627;DHT22;59475;52.464;13.590;2023-02-03T16:49:45;6.93;84.03
71627;DHT22;59475;52.464;13.590;2023-02-03T16:52:29;6.96;83.37
71627;DHT22;59475;52.464;13.590;2023-02-03T16:54:55;6.93;83.56
71627;DHT22;59475;52.464;13.590;2023-02-03T16:57:20;6.91;83.93
71627;DHT22;59475;52.464;13.590;2023-02-03T16:59:45;6.89;84.01
71627;DHT22;59475;52.464;13.590;2023-02-03T17:02:11;6.89;83.80
71627;DHT22;59475;52.464;13.590;2023-02-03T17:04:36;6.93;83.75
71627;DHT22;59475;52.464;13.590;2023-02-03T17:07:02;6.89;84.25
71627;DHT22;59475;52.464;13.590;2023-02-03T17:09:30;6.88;84.28
71627;DHT22;59475;52.464;13.590;2023-02-03T17:11:59;6.85;84.35
71627;DHT22;59475;52.464;13.590;2023-02-03T17:14:25;6.88;83.72
71627;DHT22;59475;52.464;13.590;2023-02-03T17:16:51;6.89;83.57
71627;DHT22;59475;52.464;13.590;2023-02-03T17:19:16;6.91;83.37
71627;DHT22;59475;52.464;13.590;2023-02-03T17:21:42;6.91;83.32
71627;DHT22;59475;52.464;13.590;2023-02-03T17:24:07;6.89;83.66
71627;DHT22;59475;52.464;13.590;2023-02-03T17:26:34;6.92;83.09
71627;DHT22;59475;52.464;13.590;2023-02-03T17:28:59;6.92;82.64
71627;DHT22;59475;52.464;13.590;2023-02-03T17:31:28;7.00;82.08
71627;DHT22;59475;52.464;13.590;2023-02-03T17:33:54;7.00;82.05
71627;DHT22;59475;52.464;13.590;2023-02-03T17:36:20;7.03;81.50
71627;DHT22;59475;52.464;13.590;2023-02-03T17:38:51;7.07;81.55
71627;DHT22;59475;52.464;13.590;2023-02-03T17:41:20;7.10;81.08
71627;DHT22;59475;52.464;13.590;2023-02-03T17:43:47;7.07;81.29
71627;DHT22;59475;52.464;13.590;2023-02-03T17:46:18;7.12;81.21
71627;DHT22;59475;52.464;13.590;2023-02-03T17:48:44;7.07;81.15
71627;DHT22;59475;52.464;13.590;2023-02-03T17:51:15;7.10;80.88
71627;DHT22;59475;52.464;13.590;2023-02-03T17:53:44;7.12;80.85
71627;DHT22;59475;52.464;13.590;2023-02-03T17:56:16;7.12;80.91
71627;DHT22;59475;52.464;13.590;2023-02-03T17:58:42;7.09;81.19
71627;DHT22;59475;52.464;13.590;2023-02-03T18:01:12;7.09;81.14
71627;DHT22;59475;52.464;13.590;2023-02-03T18:03:41;7.07;81.26
71627;DHT22;59475;52.464;13.590;2023-02-03T18:06:07;7.09;81.07
71627;DHT22;59475;52.464;13.590;2023-02-03T18:08:33;7.06;81.48
71627;DHT22;59475;52.464;13.590;2023-02-03T18:10:59;7.07;81.62
71627;DHT22;59475;52.464;13.590;2023-02-03T18:13:25;7.09;81.49
71627;DHT22;59475;52.464;13.590;2023-02-03T18:15:51;7.04;81.61
71627;DHT22;59475;52.464;13.590;2023-02-03T18:18:16;7.07;81.77